createdAt,value
2022-12-23T00:06:47.850Z,12.0
2022-12-23T00:14:21.924Z,12.0
2022-12-23T00:29:26.619Z,12.0
2022-12-23T00:36:58.928Z,12.0
2022-12-23T00:44:31.245Z,12.0
2022-12-23T00:52:03.584Z,12.0
2022-12-23T00:59:35.935Z,12.0
2022-12-23T01:07:08.292Z,12.0
2022-12-23T01:14:40.618Z,12.0
2022-12-23T01:22:12.949Z,12.0
2022-12-23T01:29:45.249Z,12.0
2022-12-23T01:37:17.527Z,12.0
2022-12-23T01:44:49.849Z,12.0
2022-12-23T01:52:22.174Z,12.0
2022-12-23T01:59:54.474Z,12.0
2022-12-23T02:07:26.757Z,12.0
2022-12-23T02:14:59.094Z,12.0
2022-12-23T02:22:31.428Z,12.0
2022-12-23T02:30:03.768Z,11.8
2022-12-23T02:37:36.054Z,11.8
2022-12-23T02:45:08.373Z,11.8
2022-12-23T02:52:40.701Z,11.8
2022-12-23T03:00:13.040Z,11.8
2022-12-23T03:07:45.401Z,11.8
2022-12-23T03:15:17.743Z,11.8
2022-12-23T03:22:50.080Z,11.8
2022-12-23T03:30:22.409Z,11.5
2022-12-23T03:37:54.706Z,11.5
2022-12-23T03:45:42.407Z,11.5
2022-12-23T03:53:09.283Z,11.5
2022-12-23T04:00:41.597Z,11.5
2022-12-23T04:08:13.919Z,11.5
2022-12-23T04:15:46.263Z,11.5
2022-12-23T04:23:18.651Z,11.5
2022-12-23T04:30:50.982Z,11.5
2022-12-23T04:38:23.311Z,11.5
2022-12-23T04:45:55.642Z,11.5
2022-12-23T04:53:27.992Z,11.5
2022-12-23T05:01:00.339Z,11.5
2022-12-23T05:08:32.719Z,11.5
2022-12-23T05:14:42.295Z,11.5
2022-12-23T05:15:29.583Z,11.5
2022-12-23T05:16:16.930Z,11.5
2022-12-23T05:17:07.790Z,11.5
2022-12-23T05:17:55.475Z,11.5
2022-12-23T05:18:42.882Z,11.5
2022-12-23T05:19:30.220Z,11.5
2022-12-23T05:20:17.506Z,11.5
2022-12-23T05:21:04.935Z,11.5
2022-12-23T05:21:52.237Z,11.0
2022-12-23T05:22:39.508Z,11.0
2022-12-23T05:23:26.924Z,11.0
2022-12-23T05:24:14.248Z,11.0
2022-12-23T05:25:01.604Z,11.0
2022-12-23T05:25:49.147Z,11.0
2022-12-23T05:26:36.449Z,11.0
2022-12-23T05:27:23.767Z,11.0
2022-12-23T05:28:11.154Z,11.0
2022-12-23T05:28:58.461Z,11.0
2022-12-23T05:29:45.801Z,11.0
2022-12-23T05:30:33.199Z,11.0
2022-12-23T05:31:20.550Z,11.0
2022-12-23T05:32:07.958Z,11.0
2022-12-23T05:32:55.464Z,11.0
2022-12-23T05:33:42.864Z,11.0
2022-12-23T05:34:30.201Z,11.0
2022-12-23T05:35:17.610Z,11.0
2022-12-23T05:36:04.901Z,11.0
2022-12-23T05:36:52.243Z,11.0
2022-12-23T05:37:39.672Z,11.0
2022-12-23T05:38:26.968Z,11.0
2022-12-23T05:39:14.313Z,11.0
2022-12-23T05:40:02.163Z,11.0
2022-12-23T05:40:49.735Z,11.0
2022-12-23T05:41:37.123Z,11.0
2022-12-23T05:42:24.455Z,11.0
2022-12-23T05:43:11.878Z,11.0
2022-12-23T05:43:59.194Z,11.0
2022-12-23T05:44:46.528Z,11.0
2022-12-23T05:45:33.955Z,11.0
2022-12-23T05:46:26.808Z,11.0
2022-12-23T05:47:14.825Z,11.0
2022-12-23T05:48:02.247Z,11.0
2022-12-23T05:48:49.527Z,11.0
2022-12-23T05:49:36.852Z,11.0
2022-12-23T05:50:24.261Z,11.0
2022-12-23T05:51:11.645Z,11.0
2022-12-23T05:51:58.945Z,11.0
2022-12-23T05:52:46.393Z,11.0
2022-12-23T05:53:33.683Z,11.0
2022-12-23T05:54:21.023Z,11.0
2022-12-23T05:55:08.359Z,11.0
2022-12-23T05:55:55.657Z,11.0
2022-12-23T05:56:42.955Z,11.0
2022-12-23T05:57:30.351Z,11.0
2022-12-23T05:58:18.137Z,11.0
2022-12-23T05:59:05.483Z,11.0
2022-12-23T05:59:52.888Z,11.0
2022-12-23T06:00:40.203Z,11.0
2022-12-23T06:01:27.633Z,11.0
2022-12-23T06:02:15.120Z,11.0
2022-12-23T06:03:02.629Z,11.0
2022-12-23T06:03:50.261Z,11.0
2022-12-23T06:04:37.703Z,11.0
2022-12-23T06:05:25.006Z,11.0
2022-12-23T06:06:12.349Z,11.0
2022-12-23T06:06:59.751Z,11.0
2022-12-23T06:07:47.071Z,11.0
2022-12-23T06:08:34.375Z,11.0
2022-12-23T06:09:21.819Z,11.0
2022-12-23T06:10:09.142Z,11.0
2022-12-23T06:10:56.463Z,11.0
2022-12-23T06:11:43.920Z,11.0
2022-12-23T06:12:31.253Z,11.0
2022-12-23T06:13:18.591Z,11.0
2022-12-23T06:14:06.011Z,11.0
2022-12-23T06:14:53.351Z,11.0
2022-12-23T06:15:40.658Z,11.0
2022-12-23T06:16:28.131Z,11.0
2022-12-23T06:17:15.471Z,11.0
2022-12-23T06:18:02.777Z,11.0
2022-12-23T06:18:50.175Z,11.0
2022-12-23T06:19:37.471Z,11.0
2022-12-23T06:20:24.769Z,11.0
2022-12-23T06:21:12.187Z,11.0
2022-12-23T06:21:59.493Z,17.4
2022-12-23T06:22:46.834Z,17.4
2022-12-23T06:23:34.212Z,17.4
2022-12-23T06:24:21.539Z,17.4
2022-12-23T06:25:08.855Z,17.4
2022-12-23T06:25:56.259Z,17.4
2022-12-23T06:26:43.567Z,17.4
2022-12-23T06:27:30.857Z,17.4
2022-12-23T06:28:18.279Z,17.4
2022-12-23T06:29:05.577Z,17.4
2022-12-23T06:29:52.880Z,17.4
2022-12-23T06:30:40.300Z,17.4
2022-12-23T06:31:27.626Z,17.4
2022-12-23T06:32:15.111Z,17.4
2022-12-23T06:33:02.492Z,17.4
2022-12-23T06:33:49.808Z,17.4
2022-12-23T06:34:37.129Z,17.4
2022-12-23T06:35:24.530Z,17.4
2022-12-23T06:36:11.854Z,17.4
2022-12-23T06:36:59.196Z,17.4
2022-12-23T06:37:46.578Z,17.4
2022-12-23T06:38:33.924Z,17.4
2022-12-23T06:39:21.257Z,17.4
2022-12-23T06:40:08.651Z,17.4
2022-12-23T06:40:55.987Z,17.4
2022-12-23T06:41:43.332Z,17.4
2022-12-23T06:42:30.713Z,17.4
2022-12-23T06:43:18.008Z,17.4
2022-12-23T06:44:05.347Z,17.4
2022-12-23T06:44:52.729Z,17.4
2022-12-23T06:45:40.039Z,17.4
2022-12-23T06:46:27.452Z,17.4
2022-12-23T06:47:14.816Z,17.4
2022-12-23T06:48:02.160Z,17.4
2022-12-23T06:48:49.500Z,17.4
2022-12-23T06:49:36.895Z,17.4
2022-12-23T06:50:24.192Z,17.4
2022-12-23T06:51:11.491Z,17.4
2022-12-23T06:51:58.877Z,17.4
2022-12-23T06:52:46.201Z,17.4
2022-12-23T06:53:33.547Z,17.4
2022-12-23T06:54:20.938Z,17.4
2022-12-23T06:55:08.269Z,17.4
2022-12-23T06:55:55.563Z,17.4
2022-12-23T06:56:43.008Z,17.4
2022-12-23T06:57:30.334Z,17.4
2022-12-23T06:58:17.684Z,17.4
2022-12-23T06:59:05.061Z,17.4
2022-12-23T06:59:52.410Z,17.4
2022-12-23T07:00:39.732Z,17.4
2022-12-23T07:01:27.197Z,17.4
2022-12-23T07:02:14.702Z,17.4
2022-12-23T07:03:02.223Z,17.4
2022-12-23T07:03:49.633Z,17.4
2022-12-23T07:04:36.933Z,17.4
2022-12-23T07:05:24.241Z,17.4
2022-12-23T07:06:11.659Z,17.4
2022-12-23T07:06:58.984Z,17.4
2022-12-23T07:07:46.318Z,17.4
2022-12-23T07:08:33.700Z,17.4
2022-12-23T07:09:21.025Z,17.4
2022-12-23T07:10:08.343Z,17.4
2022-12-23T07:10:55.750Z,17.4
2022-12-23T07:11:43.037Z,17.4
2022-12-23T07:12:30.344Z,17.4
2022-12-23T07:13:17.780Z,17.4
2022-12-23T07:14:05.100Z,17.4
2022-12-23T07:14:52.399Z,17.4
2022-12-23T07:15:39.882Z,17.4
2022-12-23T07:16:27.278Z,17.4
2022-12-23T07:17:14.665Z,17.4
2022-12-23T07:18:02.067Z,17.4
2022-12-23T07:18:49.426Z,17.4
2022-12-23T07:19:36.779Z,17.4
2022-12-23T07:20:24.118Z,17.4
2022-12-23T07:21:21.220Z,17.4
2022-12-23T07:22:08.720Z,17.9
2022-12-23T07:22:56.084Z,17.9
2022-12-23T07:23:43.362Z,17.9
2022-12-23T07:24:30.657Z,17.9
2022-12-23T07:25:18.097Z,17.9
2022-12-23T07:26:05.412Z,17.9
2022-12-23T07:26:52.771Z,17.9
2022-12-23T07:27:40.100Z,17.9
2022-12-23T07:28:27.421Z,17.9
2022-12-23T07:29:14.733Z,17.9
2022-12-23T07:30:02.121Z,17.9
2022-12-23T07:30:49.434Z,17.9
2022-12-23T07:31:40.699Z,17.9
2022-12-23T07:32:28.485Z,17.9
2022-12-23T07:33:15.913Z,17.9
2022-12-23T07:34:03.207Z,17.9
2022-12-23T07:34:50.543Z,17.9
2022-12-23T07:35:37.908Z,17.9
2022-12-23T07:36:25.235Z,17.9
2022-12-23T07:37:12.569Z,17.9
2022-12-23T07:37:59.961Z,17.9
2022-12-23T07:38:47.264Z,17.9
2022-12-23T07:39:34.579Z,17.9
2022-12-23T07:40:21.993Z,17.9
2022-12-23T07:41:09.294Z,17.9
2022-12-23T07:42:16.443Z,17.9
2022-12-23T07:42:53.964Z,17.9
2022-12-23T07:43:41.380Z,17.9
2022-12-23T07:44:28.813Z,17.9
2022-12-23T07:45:16.139Z,17.9
2022-12-23T07:46:03.676Z,17.9
2022-12-23T07:46:50.989Z,17.9
2022-12-23T07:47:38.440Z,17.9
2022-12-23T07:48:25.754Z,17.9
2022-12-23T07:49:13.058Z,17.9
2022-12-23T07:50:00.341Z,17.9
2022-12-23T07:50:47.765Z,17.9
2022-12-23T07:51:35.058Z,17.9
2022-12-23T07:52:22.360Z,17.9
2022-12-23T07:53:09.825Z,17.9
2022-12-23T07:53:57.183Z,17.9
2022-12-23T07:54:44.615Z,17.9
2022-12-23T07:55:31.920Z,17.9
2022-12-23T07:56:19.270Z,17.9
2022-12-23T07:57:06.571Z,17.9
2022-12-23T07:57:53.960Z,17.9
2022-12-23T07:58:41.275Z,17.9
2022-12-23T07:59:28.595Z,17.9
2022-12-23T08:00:15.988Z,17.9
2022-12-23T08:01:03.420Z,17.9
2022-12-23T08:01:50.903Z,17.9
2022-12-23T08:02:38.422Z,17.9
2022-12-23T08:03:26.048Z,17.9
2022-12-23T08:04:13.446Z,17.9
2022-12-23T08:05:00.853Z,17.9
2022-12-23T08:05:48.210Z,17.9
2022-12-23T08:06:35.539Z,17.9
2022-12-23T08:07:22.871Z,17.9
2022-12-23T08:08:10.224Z,17.9
2022-12-23T08:08:57.538Z,17.9
2022-12-23T08:09:44.845Z,17.9
2022-12-23T08:10:32.161Z,17.9
2022-12-23T08:11:19.453Z,17.9
2022-12-23T08:12:06.831Z,17.9
2022-12-23T08:12:54.132Z,17.9
2022-12-23T08:13:41.419Z,17.9
2022-12-23T08:14:28.780Z,17.9
2022-12-23T08:15:16.135Z,17.9
2022-12-23T08:16:03.536Z,17.9
2022-12-23T08:16:50.938Z,17.9
2022-12-23T08:17:38.308Z,17.9
2022-12-23T08:18:25.638Z,17.9
2022-12-23T08:19:12.926Z,17.9
2022-12-23T08:20:00.775Z,17.9
2022-12-23T08:20:48.127Z,17.9
2022-12-23T08:21:35.414Z,17.9
2022-12-23T08:22:22.704Z,20.1
2022-12-23T08:23:09.988Z,20.1
2022-12-23T08:23:57.336Z,20.1
2022-12-23T08:24:44.679Z,20.1
2022-12-23T08:25:31.970Z,20.1
2022-12-23T08:26:19.355Z,20.1
2022-12-23T08:27:06.646Z,20.1
2022-12-23T08:27:53.981Z,20.1
2022-12-23T08:28:41.344Z,20.1
2022-12-23T08:29:32.639Z,20.1
2022-12-23T08:30:23.156Z,20.1
2022-12-23T08:31:10.637Z,20.1
2022-12-23T08:31:58.040Z,20.1
2022-12-23T08:32:45.381Z,20.1
2022-12-23T08:33:32.738Z,20.1
2022-12-23T08:34:20.026Z,20.1
2022-12-23T08:35:07.359Z,20.1
2022-12-23T08:35:54.714Z,20.1
2022-12-23T08:36:42.071Z,20.1
2022-12-23T08:37:29.355Z,20.1
2022-12-23T08:38:16.758Z,20.1
2022-12-23T08:39:04.076Z,20.1
2022-12-23T08:39:51.396Z,20.1
2022-12-23T08:40:38.754Z,20.1
2022-12-23T08:41:26.098Z,20.1
2022-12-23T08:42:13.397Z,20.1
2022-12-23T08:43:00.818Z,20.1
2022-12-23T08:43:48.151Z,20.1
2022-12-23T08:44:35.502Z,20.1
2022-12-23T08:45:22.854Z,20.1
2022-12-23T08:46:10.313Z,20.1
2022-12-23T08:46:57.855Z,20.1
2022-12-23T08:47:45.172Z,20.1
2022-12-23T08:48:32.522Z,20.1
2022-12-23T08:49:19.862Z,20.1
2022-12-23T08:50:07.295Z,20.1
2022-12-23T08:50:54.645Z,20.1
2022-12-23T08:51:41.983Z,20.1
2022-12-23T08:52:29.390Z,20.1
2022-12-23T08:53:16.711Z,20.1
2022-12-23T08:54:04.000Z,20.1
2022-12-23T08:54:51.438Z,20.1
2022-12-23T08:55:38.789Z,20.1
2022-12-23T08:56:26.090Z,20.1
2022-12-23T08:57:13.560Z,20.1
2022-12-23T08:58:00.914Z,20.1
2022-12-23T08:58:48.223Z,20.1
2022-12-23T08:59:36.156Z,20.1
2022-12-23T09:00:23.955Z,20.1
2022-12-23T09:01:11.425Z,20.1
2022-12-23T09:01:58.888Z,20.1
2022-12-23T09:02:46.614Z,20.1
2022-12-23T09:03:34.275Z,20.1
2022-12-23T09:04:21.623Z,20.1
2022-12-23T09:05:08.914Z,20.1
2022-12-23T09:05:56.315Z,20.1
2022-12-23T09:06:43.631Z,20.1
2022-12-23T09:07:30.972Z,20.1
2022-12-23T09:08:18.314Z,20.1
2022-12-23T09:09:05.677Z,20.1
2022-12-23T09:09:53.032Z,20.1
2022-12-23T09:10:40.435Z,20.1
2022-12-23T09:11:27.758Z,20.1
2022-12-23T09:12:15.093Z,20.1
2022-12-23T09:13:02.455Z,20.1
2022-12-23T09:13:49.742Z,20.1
2022-12-23T09:14:37.170Z,20.1
2022-12-23T09:15:24.534Z,20.1
2022-12-23T09:16:11.947Z,20.1
2022-12-23T09:16:59.282Z,20.1
2022-12-23T09:17:46.717Z,20.1
2022-12-23T09:18:34.024Z,20.1
2022-12-23T09:19:21.396Z,20.1
2022-12-23T09:20:08.818Z,20.1
2022-12-23T09:20:56.142Z,20.1
2022-12-23T09:21:43.439Z,16.9
2022-12-23T09:22:30.888Z,16.9
2022-12-23T09:23:18.203Z,16.9
2022-12-23T09:24:05.540Z,16.9
2022-12-23T09:24:52.958Z,16.9
2022-12-23T09:25:40.305Z,16.9
2022-12-23T09:26:27.636Z,16.9
2022-12-23T09:27:15.024Z,16.9
2022-12-23T09:28:02.305Z,16.9
2022-12-23T09:28:49.674Z,16.9
2022-12-23T09:29:37.063Z,16.9
2022-12-23T09:30:24.365Z,16.9
2022-12-23T09:31:11.667Z,16.9
2022-12-23T09:31:59.201Z,16.9
2022-12-23T09:32:46.538Z,16.9
2022-12-23T09:33:33.944Z,16.9
2022-12-23T09:34:21.347Z,16.9
2022-12-23T09:35:08.704Z,16.9
2022-12-23T09:35:56.155Z,16.9
2022-12-23T09:36:43.575Z,16.9
2022-12-23T09:37:30.953Z,16.9
2022-12-23T09:38:18.323Z,16.9
2022-12-23T09:39:05.783Z,16.9
2022-12-23T09:39:53.138Z,16.9
2022-12-23T09:40:40.478Z,16.9
2022-12-23T09:41:27.833Z,16.9
2022-12-23T09:42:15.225Z,16.9
2022-12-23T09:43:02.557Z,16.9
2022-12-23T09:43:50.138Z,16.9
2022-12-23T09:44:37.513Z,16.9
2022-12-23T09:45:24.806Z,16.9
2022-12-23T09:46:12.349Z,16.9
2022-12-23T09:46:59.764Z,16.9
2022-12-23T09:47:47.091Z,16.9
2022-12-23T09:48:34.599Z,16.9
2022-12-23T09:49:22.043Z,16.9
2022-12-23T09:50:09.373Z,16.9
2022-12-23T09:50:56.773Z,16.9
2022-12-23T09:51:44.082Z,16.9
2022-12-23T09:52:31.392Z,16.9
2022-12-23T09:53:18.842Z,16.9
2022-12-23T09:54:06.481Z,16.9
2022-12-23T09:54:55.247Z,16.9
2022-12-23T09:55:42.632Z,16.9
2022-12-23T09:56:30.036Z,16.9
2022-12-23T09:57:17.370Z,16.9
2022-12-23T09:58:04.781Z,16.9
2022-12-23T09:58:52.163Z,16.9
2022-12-23T09:59:39.489Z,16.9
2022-12-23T10:00:26.951Z,16.9
2022-12-23T10:01:14.317Z,16.9
2022-12-23T10:02:01.766Z,16.9
2022-12-23T10:02:49.343Z,16.9
2022-12-23T10:03:37.509Z,16.9
2022-12-23T10:04:25.206Z,16.9
2022-12-23T10:05:12.588Z,16.9
2022-12-23T10:05:59.932Z,16.9
2022-12-23T10:06:47.240Z,16.9
2022-12-23T10:07:34.610Z,16.9
2022-12-23T10:08:21.952Z,16.9
2022-12-23T10:09:09.384Z,16.9
2022-12-23T10:09:56.834Z,16.9
2022-12-23T10:10:44.199Z,16.9
2022-12-23T10:11:31.572Z,16.9
2022-12-23T10:12:25.313Z,16.9
2022-12-23T10:13:14.722Z,16.9
2022-12-23T10:14:02.057Z,16.9
2022-12-23T10:14:49.364Z,16.9
2022-12-23T10:15:36.672Z,16.9
2022-12-23T10:16:24.189Z,16.9
2022-12-23T10:17:11.615Z,16.9
2022-12-23T10:17:58.972Z,16.9
2022-12-23T10:18:46.341Z,16.9
2022-12-23T10:19:33.665Z,16.9
2022-12-23T10:20:20.976Z,16.9
2022-12-23T10:21:08.424Z,16.9
2022-12-23T10:21:55.754Z,17.5
2022-12-23T10:22:43.156Z,17.5
2022-12-23T10:23:30.580Z,17.5
2022-12-23T10:24:18.180Z,17.5
2022-12-23T10:25:05.463Z,17.5
2022-12-23T10:25:52.908Z,17.5
2022-12-23T10:26:40.230Z,17.5
2022-12-23T10:27:27.552Z,17.5
2022-12-23T10:28:15.028Z,17.5
2022-12-23T10:29:02.435Z,17.5
2022-12-23T10:29:49.807Z,17.5
2022-12-23T10:31:17.354Z,17.5
2022-12-23T10:31:42.010Z,17.5
2022-12-23T10:32:29.589Z,17.5
2022-12-23T10:33:16.969Z,17.5
2022-12-23T10:34:04.360Z,17.5
2022-12-23T10:34:51.671Z,17.5
2022-12-23T10:35:39.780Z,17.5
2022-12-23T10:36:27.258Z,17.5
2022-12-23T10:37:14.620Z,17.5
2022-12-23T10:38:01.990Z,17.5
2022-12-23T10:38:49.419Z,17.5
2022-12-23T10:39:36.724Z,17.5
2022-12-23T10:40:24.093Z,17.5
2022-12-23T10:41:11.497Z,17.5
2022-12-23T10:41:58.914Z,17.5
2022-12-23T10:42:46.261Z,17.5
2022-12-23T10:43:33.678Z,17.5
2022-12-23T10:44:21.108Z,17.5
2022-12-23T10:45:08.453Z,17.5
2022-12-23T10:45:55.834Z,17.5
2022-12-23T10:46:43.191Z,17.5
2022-12-23T10:47:30.565Z,17.5
2022-12-23T10:48:17.930Z,17.5
2022-12-23T10:49:05.306Z,17.5
2022-12-23T10:49:52.640Z,17.5
2022-12-23T10:50:40.115Z,17.5
2022-12-23T10:51:27.385Z,17.5
2022-12-23T10:52:14.720Z,17.5
2022-12-23T10:53:02.176Z,17.5
2022-12-23T10:53:49.525Z,17.5
2022-12-23T10:54:36.832Z,17.5
2022-12-23T10:55:28.495Z,17.5
2022-12-23T10:56:18.846Z,17.5
2022-12-23T10:57:06.207Z,17.5
2022-12-23T10:57:53.556Z,17.5
2022-12-23T10:58:40.891Z,17.5
2022-12-23T10:59:28.618Z,17.5
2022-12-23T11:00:16.210Z,17.5
2022-12-23T11:01:06.867Z,17.5
2022-12-23T11:01:57.570Z,17.5
2022-12-23T11:02:45.268Z,17.5
2022-12-23T11:03:32.996Z,17.5
2022-12-23T11:04:20.409Z,17.5
2022-12-23T11:05:07.753Z,17.5
2022-12-23T11:05:55.107Z,17.5
2022-12-23T11:06:42.434Z,17.5
2022-12-23T11:07:46.236Z,17.5
2022-12-23T11:08:27.061Z,17.5
2022-12-23T11:09:14.455Z,17.5
2022-12-23T11:10:01.817Z,17.5
2022-12-23T11:10:49.190Z,17.5
2022-12-23T11:11:36.551Z,17.5
2022-12-23T11:12:23.833Z,17.5
2022-12-23T11:13:11.130Z,17.5
2022-12-23T11:13:58.555Z,17.5
2022-12-23T11:14:45.847Z,17.5
2022-12-23T11:15:33.230Z,17.5
2022-12-23T11:16:20.603Z,17.5
2022-12-23T11:17:07.942Z,17.5
2022-12-23T11:17:55.543Z,17.5
2022-12-23T11:18:42.831Z,17.5
2022-12-23T11:19:30.156Z,17.5
2022-12-23T11:20:17.507Z,17.5
2022-12-23T11:21:04.858Z,17.5
2022-12-23T11:21:52.201Z,15.7
2022-12-23T11:22:39.782Z,15.7
2022-12-23T11:23:27.216Z,15.7
2022-12-23T11:24:14.548Z,15.7
2022-12-23T11:25:01.880Z,15.7
2022-12-23T11:25:49.376Z,15.7
2022-12-23T11:26:36.677Z,15.7
2022-12-23T11:27:23.980Z,15.7
2022-12-23T11:28:11.458Z,15.7
2022-12-23T11:28:58.820Z,15.7
2022-12-23T11:29:46.112Z,15.7
2022-12-23T11:30:33.555Z,15.7
2022-12-23T11:31:20.959Z,15.7
2022-12-23T11:32:08.391Z,15.7
2022-12-23T11:32:55.781Z,15.7
2022-12-23T11:33:43.088Z,15.7
2022-12-23T11:34:30.427Z,15.7
2022-12-23T11:35:17.869Z,15.7
2022-12-23T11:36:05.245Z,15.7
2022-12-23T11:36:55.148Z,15.7
2022-12-23T11:37:43.994Z,15.7
2022-12-23T11:38:31.458Z,15.7
2022-12-23T11:39:18.768Z,15.7
2022-12-23T11:40:06.076Z,15.7
2022-12-23T11:40:53.495Z,15.7
2022-12-23T11:41:40.793Z,15.7
2022-12-23T11:42:28.552Z,15.7
2022-12-23T11:43:15.923Z,15.7
2022-12-23T11:44:03.237Z,15.7
2022-12-23T11:44:50.545Z,15.7
2022-12-23T11:45:37.990Z,15.7
2022-12-23T11:46:25.543Z,15.7
2022-12-23T11:47:12.910Z,15.7
2022-12-23T11:48:00.317Z,15.7
2022-12-23T11:48:54.436Z,15.7
2022-12-23T11:49:42.177Z,15.7
2022-12-23T11:50:29.542Z,15.7
2022-12-23T11:51:17.066Z,15.7
2022-12-23T11:52:04.374Z,15.7
2022-12-23T11:52:51.820Z,15.7
2022-12-23T11:53:39.212Z,15.7
2022-12-23T11:54:26.511Z,15.7
2022-12-23T11:55:13.923Z,15.7
2022-12-23T11:56:01.327Z,15.7
2022-12-23T11:56:48.744Z,15.7
2022-12-23T11:57:36.159Z,15.7
2022-12-23T11:58:23.479Z,15.7
2022-12-23T11:59:10.785Z,15.7
2022-12-23T11:59:58.203Z,15.7
2022-12-23T12:00:49.327Z,15.7
2022-12-23T12:01:39.441Z,15.7
2022-12-23T12:02:26.923Z,15.7
2022-12-23T12:03:14.483Z,15.7
2022-12-23T12:04:01.976Z,15.7
2022-12-23T12:04:49.413Z,15.7
2022-12-23T12:05:36.729Z,15.7
2022-12-23T12:06:24.065Z,15.7
2022-12-23T12:07:11.407Z,15.7
2022-12-23T12:07:58.693Z,15.7
2022-12-23T12:08:45.989Z,15.7
2022-12-23T12:09:33.458Z,15.7
2022-12-23T12:10:20.737Z,15.7
2022-12-23T12:11:08.066Z,15.7
2022-12-23T12:11:55.508Z,15.7
2022-12-23T12:12:42.830Z,15.7
2022-12-23T12:13:30.148Z,15.7
2022-12-23T12:14:17.555Z,15.7
2022-12-23T12:15:04.926Z,15.7
2022-12-23T12:15:52.223Z,15.7
2022-12-23T12:16:40.029Z,15.7
2022-12-23T12:17:27.382Z,15.7
2022-12-23T12:18:14.690Z,15.7
2022-12-23T12:19:02.019Z,15.7
2022-12-23T12:19:49.345Z,15.7
2022-12-23T12:20:36.637Z,15.7
2022-12-23T12:21:23.948Z,15.7
2022-12-23T12:22:11.289Z,17.1
2022-12-23T12:22:58.637Z,17.1
2022-12-23T12:23:46.008Z,17.1
2022-12-23T12:24:33.340Z,17.1
2022-12-23T12:25:20.660Z,17.1
2022-12-23T12:26:07.949Z,17.1
2022-12-23T12:26:55.458Z,17.1
2022-12-23T12:27:42.726Z,17.1
2022-12-23T12:28:30.071Z,17.1
2022-12-23T12:29:17.354Z,17.1
2022-12-23T12:30:08.364Z,17.1
2022-12-23T12:30:59.252Z,17.1
2022-12-23T12:31:46.649Z,17.1
2022-12-23T12:32:33.935Z,17.1
2022-12-23T12:33:21.249Z,17.1
2022-12-23T12:34:08.687Z,17.1
2022-12-23T12:34:56.032Z,17.1
2022-12-23T12:35:43.356Z,17.1
2022-12-23T12:36:30.697Z,17.1
2022-12-23T12:37:18.031Z,17.1
2022-12-23T12:38:05.391Z,17.1
2022-12-23T12:38:52.720Z,17.1
2022-12-23T12:39:40.008Z,17.1
2022-12-23T12:40:27.319Z,17.1
2022-12-23T12:41:14.625Z,17.1
2022-12-23T12:42:05.836Z,17.1
2022-12-23T12:42:53.452Z,17.1
2022-12-23T12:43:40.876Z,17.1
2022-12-23T12:44:28.868Z,17.1
2022-12-23T12:45:16.161Z,17.1
2022-12-23T12:46:03.517Z,17.1
2022-12-23T12:46:50.926Z,17.1
2022-12-23T12:47:53.863Z,17.1
2022-12-23T12:48:35.613Z,17.1
2022-12-23T12:49:22.970Z,17.1
2022-12-23T12:50:10.275Z,17.1
2022-12-23T12:50:57.586Z,17.1
2022-12-23T12:51:45.029Z,17.1
2022-12-23T12:52:32.368Z,17.1
2022-12-23T12:53:19.689Z,17.1
2022-12-23T12:54:07.147Z,17.1
2022-12-23T12:54:54.473Z,17.1
2022-12-23T12:55:41.897Z,17.1
2022-12-23T12:56:29.327Z,17.1
2022-12-23T12:57:16.722Z,17.1
2022-12-23T12:58:04.043Z,17.1
2022-12-23T12:58:51.503Z,17.1
2022-12-23T12:59:38.823Z,17.1
2022-12-23T13:00:26.239Z,17.1
2022-12-23T13:01:13.663Z,17.1
2022-12-23T13:02:01.063Z,17.1
2022-12-23T13:02:48.550Z,17.1
2022-12-23T13:03:35.917Z,17.1
2022-12-23T13:04:23.261Z,17.1
2022-12-23T13:05:10.618Z,17.1
2022-12-23T13:05:58.053Z,17.1
2022-12-23T13:06:45.422Z,17.1
2022-12-23T13:07:32.798Z,17.1
2022-12-23T13:08:20.696Z,17.1
2022-12-23T13:09:08.194Z,17.1
2022-12-23T13:09:55.527Z,17.1
2022-12-23T13:10:42.871Z,17.1
2022-12-23T13:11:30.243Z,17.1
2022-12-23T13:12:17.608Z,17.1
2022-12-23T13:13:04.983Z,17.1
2022-12-23T13:13:52.568Z,17.1
2022-12-23T13:14:39.899Z,17.1
2022-12-23T13:15:27.317Z,17.1
2022-12-23T13:16:14.751Z,17.1
2022-12-23T13:17:02.173Z,17.1
2022-12-23T13:17:49.597Z,17.1
2022-12-23T13:18:36.925Z,17.1
2022-12-23T13:19:24.258Z,17.1
2022-12-23T13:20:11.584Z,17.1
2022-12-23T13:20:58.960Z,17.1
2022-12-23T13:21:46.352Z,15.1
2022-12-23T13:22:33.761Z,15.1
2022-12-23T13:23:42.935Z,15.1
2022-12-23T13:24:18.454Z,15.1
2022-12-23T13:25:05.878Z,15.1
2022-12-23T13:25:53.180Z,15.1
2022-12-23T13:26:40.518Z,15.1
2022-12-23T13:27:27.975Z,15.1
2022-12-23T13:28:15.329Z,15.1
2022-12-23T13:29:02.640Z,15.1
2022-12-23T13:29:56.132Z,15.1
2022-12-23T13:30:45.316Z,15.1
2022-12-23T13:31:32.835Z,15.1
2022-12-23T13:32:20.190Z,15.1
2022-12-23T13:33:07.590Z,15.1
2022-12-23T13:33:54.925Z,15.1
2022-12-23T13:34:42.240Z,15.1
2022-12-23T13:35:29.570Z,15.1
2022-12-23T13:36:17.027Z,15.1
2022-12-23T13:37:04.395Z,15.1
2022-12-23T13:37:51.759Z,15.1
2022-12-23T13:38:39.777Z,15.1
2022-12-23T13:39:27.150Z,15.1
2022-12-23T13:40:14.573Z,15.1
2022-12-23T13:41:01.846Z,15.1
2022-12-23T13:41:49.281Z,15.1
2022-12-23T13:42:36.605Z,15.1
2022-12-23T13:43:24.344Z,15.1
2022-12-23T13:44:11.813Z,15.1
2022-12-23T13:44:59.144Z,15.1
2022-12-23T13:45:46.536Z,15.1
2022-12-23T13:46:33.960Z,15.1
2022-12-23T13:47:21.283Z,15.1
2022-12-23T13:48:08.572Z,15.1
2022-12-23T13:48:56.097Z,15.1
2022-12-23T13:49:43.460Z,15.1
2022-12-23T13:50:30.783Z,15.1
2022-12-23T13:51:18.171Z,15.1
2022-12-23T13:52:05.522Z,15.1
2022-12-23T13:52:52.844Z,15.1
2022-12-23T13:53:40.249Z,15.1
2022-12-23T13:54:27.542Z,15.1
2022-12-23T13:55:14.866Z,15.1
2022-12-23T13:56:02.250Z,15.1
2022-12-23T13:56:49.546Z,15.1
2022-12-23T13:57:36.961Z,15.1
2022-12-23T13:58:24.264Z,15.1
2022-12-23T13:59:11.635Z,15.1
2022-12-23T14:00:04.896Z,15.1
2022-12-23T14:00:53.071Z,15.1
2022-12-23T14:01:40.741Z,15.1
2022-12-23T14:02:28.869Z,15.1
2022-12-23T14:03:16.574Z,15.1
2022-12-23T14:04:03.903Z,15.1
2022-12-23T14:04:51.335Z,15.1
2022-12-23T14:05:38.676Z,15.1
2022-12-23T14:06:25.998Z,15.1
2022-12-23T14:07:13.320Z,15.1
2022-12-23T14:08:00.622Z,15.1
2022-12-23T14:08:47.956Z,15.1
2022-12-23T14:09:35.541Z,15.1
2022-12-23T14:10:23.983Z,15.1
2022-12-23T14:11:11.335Z,15.1
2022-12-23T14:12:02.806Z,15.1
2022-12-23T14:12:51.964Z,15.1
2022-12-23T14:13:39.992Z,15.1
2022-12-23T14:14:27.432Z,15.1
2022-12-23T14:15:14.731Z,15.1
2022-12-23T14:16:02.098Z,15.1
2022-12-23T14:16:49.475Z,15.1
2022-12-23T14:17:36.853Z,15.1
2022-12-23T14:18:24.154Z,15.1
2022-12-23T14:19:11.559Z,15.1
2022-12-23T14:19:58.864Z,15.1
2022-12-23T14:20:46.143Z,15.1
2022-12-23T14:21:33.576Z,15.1
2022-12-23T14:22:20.929Z,16.0
2022-12-23T14:23:08.224Z,16.0
2022-12-23T14:24:00.857Z,16.0
2022-12-23T14:24:51.265Z,16.0
2022-12-23T14:25:38.632Z,16.0
2022-12-23T14:26:25.915Z,16.0
2022-12-23T14:27:13.243Z,16.0
2022-12-23T14:28:00.630Z,16.0
2022-12-23T14:28:48.012Z,16.0
2022-12-23T14:29:35.362Z,16.0
2022-12-23T14:30:22.741Z,16.0
2022-12-23T14:31:10.155Z,16.0
2022-12-23T14:31:57.494Z,16.0
2022-12-23T14:32:44.869Z,16.0
2022-12-23T14:33:32.196Z,16.0
2022-12-23T14:34:19.526Z,16.0
2022-12-23T14:35:06.903Z,16.0
2022-12-23T14:35:54.197Z,16.0
2022-12-23T14:36:41.548Z,16.0
2022-12-23T14:37:28.958Z,16.0
2022-12-23T14:38:16.359Z,16.0
2022-12-23T14:39:03.656Z,16.0
2022-12-23T14:39:51.046Z,16.0
2022-12-23T14:40:38.351Z,16.0
2022-12-23T14:41:25.845Z,16.0
2022-12-23T14:42:16.470Z,16.0
2022-12-23T14:43:04.055Z,16.0
2022-12-23T14:43:51.384Z,16.0
2022-12-23T14:44:38.672Z,16.0
2022-12-23T14:45:26.002Z,16.0
2022-12-23T14:46:13.413Z,16.0
2022-12-23T14:47:00.857Z,16.0
2022-12-23T14:47:48.212Z,16.0
2022-12-23T14:48:35.660Z,16.0
2022-12-23T14:49:39.151Z,16.0
2022-12-23T14:50:20.266Z,16.0
2022-12-23T14:51:07.642Z,16.0
2022-12-23T14:51:54.963Z,16.0
2022-12-23T14:52:45.009Z,16.0
2022-12-23T14:53:32.635Z,16.0
2022-12-23T14:54:20.061Z,16.0
2022-12-23T14:55:29.791Z,16.0
2022-12-23T14:56:04.698Z,16.0
2022-12-23T14:56:52.096Z,16.0
2022-12-23T14:57:39.480Z,16.0
2022-12-23T14:58:26.766Z,16.0
2022-12-23T14:59:14.203Z,16.0
2022-12-23T15:00:01.616Z,16.0
2022-12-23T15:00:48.982Z,16.0
2022-12-23T15:01:36.414Z,16.0
2022-12-23T15:02:23.900Z,16.0
2022-12-23T15:03:11.391Z,16.0
2022-12-23T15:04:01.595Z,16.0
2022-12-23T15:04:49.252Z,16.0
2022-12-23T15:05:36.639Z,16.0
2022-12-23T15:06:24.247Z,16.0
2022-12-23T15:07:11.529Z,16.0
2022-12-23T15:07:58.892Z,16.0
2022-12-23T15:08:46.238Z,16.0
2022-12-23T15:09:33.582Z,16.0
2022-12-23T15:10:21.011Z,16.0
2022-12-23T15:11:08.340Z,16.0
2022-12-23T15:11:55.678Z,16.0
2022-12-23T15:12:43.103Z,16.0
2022-12-23T15:13:30.402Z,16.0
2022-12-23T15:14:17.716Z,16.0
2022-12-23T15:15:05.118Z,16.0
2022-12-23T15:15:57.383Z,16.0
2022-12-23T15:16:48.155Z,16.0